createdAt,value
2022-11-23T00:01:35.231Z,9.40
2022-11-23T00:04:05.502Z,9.40
2022-11-23T00:06:33.167Z,9.40
2022-11-23T00:09:00.006Z,9.50
2022-11-23T00:11:28.113Z,9.40
2022-11-23T00:13:57.648Z,9.30
2022-11-23T00:16:30.585Z,9.30
2022-11-23T00:18:59.735Z,9.20
2022-11-23T00:21:28.449Z,9.20
2022-11-23T00:23:55.848Z,9.20
2022-11-23T00:26:25.681Z,9.30
2022-11-23T00:28:53.613Z,9.30
2022-11-23T00:31:21.546Z,9.40
2022-11-23T00:33:52.943Z,9.40
2022-11-23T00:36:21.734Z,9.30
2022-11-23T00:38:49.985Z,9.40
2022-11-23T00:41:20.425Z,9.40
2022-11-23T00:43:49.868Z,9.40
2022-11-23T00:46:24.041Z,9.30
2022-11-23T00:48:53.581Z,9.30
2022-11-23T00:51:26.827Z,9.30
2022-11-23T00:53:54.178Z,9.40
2022-11-23T00:56:23.567Z,9.40
2022-11-23T00:58:53.414Z,9.40
2022-11-23T01:01:34.254Z,9.40
2022-11-23T01:04:04.461Z,9.40
2022-11-23T01:06:37.771Z,9.30
2022-11-23T01:09:08.992Z,9.40
2022-11-23T01:11:35.953Z,9.30
2022-11-23T01:14:03.413Z,9.40
2022-11-23T01:16:33.316Z,9.40
2022-11-23T01:19:02.677Z,9.40
2022-11-23T01:21:33.416Z,9.40
2022-11-23T01:24:00.905Z,9.40
2022-11-23T01:26:27.727Z,9.40
2022-11-23T01:28:58.002Z,9.40
2022-11-23T01:31:27.010Z,9.30
2022-11-23T01:34:00.411Z,9.40
2022-11-23T01:36:32.453Z,9.40
2022-11-23T01:39:00.742Z,9.40
2022-11-23T01:41:34.209Z,9.40
2022-11-23T01:44:01.854Z,9.40
2022-11-23T01:46:30.431Z,9.30
2022-11-23T01:49:03.795Z,9.40
2022-11-23T01:51:37.353Z,9.40
2022-11-23T01:54:17.101Z,9.40
2022-11-23T01:56:52.439Z,9.40
2022-11-23T01:59:20.328Z,9.40
2022-11-23T02:01:48.432Z,9.40
2022-11-23T02:04:22.458Z,9.40
2022-11-23T02:06:51.107Z,9.40
2022-11-23T02:09:22.042Z,9.30
2022-11-23T02:11:50.405Z,9.40
2022-11-23T02:14:23.212Z,9.30
2022-11-23T02:16:55.496Z,9.30
2022-11-23T02:19:47.666Z,9.40
2022-11-23T02:22:26.913Z,9.40
2022-11-23T02:24:55.686Z,9.40
2022-11-23T02:27:28.025Z,9.30
2022-11-23T02:29:58.608Z,9.30
2022-11-23T02:32:26.483Z,9.30
2022-11-23T02:34:58.792Z,9.30
2022-11-23T02:37:26.899Z,9.30
2022-11-23T02:39:56.501Z,9.30
2022-11-23T02:42:24.786Z,9.20
2022-11-23T02:45:09.207Z,9.20
2022-11-23T02:47:38.293Z,9.20
2022-11-23T02:50:05.578Z,9.20
2022-11-23T02:52:32.492Z,9.20
2022-11-23T02:54:59.320Z,9.30
2022-11-23T02:57:26.320Z,9.20
2022-11-23T02:59:53.186Z,9.30
2022-11-23T03:02:20.137Z,9.30
2022-11-23T03:04:47.206Z,9.30
2022-11-23T03:07:14.419Z,9.20
2022-11-23T03:09:41.338Z,9.20
2022-11-23T03:12:09.592Z,9.20
2022-11-23T03:14:38.770Z,9.20
2022-11-23T03:17:06.076Z,9.30
2022-11-23T03:19:38.049Z,9.30
2022-11-23T03:22:05.157Z,9.20
2022-11-23T03:24:32.192Z,9.20
2022-11-23T03:27:02.383Z,9.10
2022-11-23T03:29:29.884Z,9.10
2022-11-23T03:32:00.752Z,9.10
2022-11-23T03:34:27.716Z,9.10
2022-11-23T03:36:54.583Z,9.00
2022-11-23T03:39:21.714Z,8.90
2022-11-23T03:42:07.968Z,8.80
2022-11-23T03:44:36.497Z,8.70
2022-11-23T03:47:06.217Z,8.80
2022-11-23T03:49:35.387Z,8.80
2022-11-23T03:52:03.586Z,8.70
2022-11-23T03:54:30.581Z,8.70
2022-11-23T03:56:58.622Z,8.80
2022-11-23T03:59:25.518Z,8.80
2022-11-23T04:01:55.019Z,8.80
2022-11-23T04:04:27.579Z,8.80
2022-11-23T04:07:11.515Z,8.80
2022-11-23T04:09:42.372Z,8.80
2022-11-23T04:12:50.247Z,8.80
2022-11-23T04:15:17.476Z,8.80
2022-11-23T04:17:44.343Z,8.80
2022-11-23T04:20:13.300Z,8.80
2022-11-23T04:22:40.222Z,8.80
2022-11-23T04:25:07.980Z,8.80
2022-11-23T04:27:34.982Z,8.80
2022-11-23T04:30:04.106Z,8.70
2022-11-23T04:32:31.782Z,8.70
2022-11-23T04:35:00.031Z,8.70
2022-11-23T04:37:27.678Z,8.70
2022-11-23T04:39:54.630Z,8.70
2022-11-23T04:42:36.341Z,8.70
2022-11-23T04:45:03.583Z,8.60
2022-11-23T04:47:31.330Z,8.70
2022-11-23T04:50:02.073Z,8.80
2022-11-23T04:52:29.867Z,8.70
2022-11-23T04:55:01.758Z,8.60
2022-11-23T04:57:34.143Z,8.60
2022-11-23T05:00:01.843Z,8.60
2022-11-23T05:02:30.877Z,8.50
2022-11-23T05:05:14.550Z,8.40
2022-11-23T05:07:41.531Z,8.40
2022-11-23T05:10:10.188Z,8.40
2022-11-23T05:12:41.933Z,8.40
2022-11-23T05:15:12.508Z,8.40
2022-11-23T05:17:39.424Z,8.40
2022-11-23T05:20:13.025Z,8.40
2022-11-23T05:22:46.262Z,8.30
2022-11-23T05:25:16.379Z,8.20
2022-11-23T05:27:44.769Z,8.20
2022-11-23T05:30:12.933Z,8.20
2022-11-23T05:32:42.673Z,8.10
2022-11-23T05:35:10.665Z,8.10
2022-11-23T05:37:39.515Z,8.10
2022-11-23T05:40:10.876Z,8.10
2022-11-23T05:42:38.111Z,8.10
2022-11-23T05:45:13.241Z,8.00
2022-11-23T05:47:49.795Z,8.10
2022-11-23T05:50:23.534Z,8.00
2022-11-23T05:53:11.413Z,8.00
2022-11-23T05:55:40.458Z,7.90
2022-11-23T05:58:10.376Z,8.00
2022-11-23T06:00:37.716Z,7.90
2022-11-23T06:03:07.543Z,7.90
2022-11-23T06:05:37.019Z,8.00
2022-11-23T06:08:04.030Z,7.90
2022-11-23T06:10:33.131Z,7.90
2022-11-23T06:13:04.606Z,7.80
2022-11-23T06:15:32.517Z,7.80
2022-11-23T06:18:01.162Z,7.70
2022-11-23T06:20:35.927Z,7.70
2022-11-23T06:23:02.938Z,7.70
2022-11-23T06:25:30.169Z,7.60
2022-11-23T06:28:15.805Z,7.60
2022-11-23T06:30:48.411Z,7.70
2022-11-23T06:33:15.994Z,7.60
2022-11-23T06:36:02.897Z,7.50
2022-11-23T06:38:36.222Z,7.50
2022-11-23T06:41:15.964Z,7.40
2022-11-23T06:43:42.932Z,7.40
2022-11-23T06:46:12.599Z,7.30
2022-11-23T06:48:45.020Z,7.40
2022-11-23T06:51:15.251Z,7.40
2022-11-23T06:53:43.653Z,7.30
2022-11-23T06:56:12.882Z,7.30
2022-11-23T06:58:41.263Z,7.20
2022-11-23T07:01:13.020Z,7.20
2022-11-23T07:03:47.261Z,7.20
2022-11-23T07:06:31.338Z,7.20
2022-11-23T07:09:04.934Z,7.20
2022-11-23T07:11:53.172Z,7.10
2022-11-23T07:14:47.489Z,7.10
2022-11-23T07:17:17.536Z,7.00
2022-11-23T07:19:50.589Z,7.00
2022-11-23T07:22:17.563Z,7.00
2022-11-23T07:24:48.033Z,7.00
2022-11-23T07:27:17.154Z,7.00
2022-11-23T07:29:44.821Z,6.90
2022-11-23T07:32:14.985Z,7.00
2022-11-23T07:34:41.889Z,6.90
2022-11-23T07:37:11.937Z,6.90
2022-11-23T07:39:56.934Z,6.90
2022-11-23T07:42:38.210Z,6.90
2022-11-23T07:45:12.038Z,6.90
2022-11-23T07:47:46.050Z,6.90
2022-11-23T07:50:16.317Z,6.80
2022-11-23T07:52:43.204Z,6.90
2022-11-23T07:55:13.074Z,6.80
2022-11-23T07:57:40.007Z,6.90
2022-11-23T08:00:07.857Z,6.80
2022-11-23T08:02:57.852Z,6.70
2022-11-23T08:05:32.313Z,6.70
2022-11-23T08:08:00.955Z,6.90
2022-11-23T08:10:30.706Z,6.90
2022-11-23T08:12:58.937Z,6.90
2022-11-23T08:15:28.110Z,6.90
2022-11-23T08:17:56.412Z,7.00
2022-11-23T08:20:26.345Z,7.00
2022-11-23T08:22:55.836Z,7.10
2022-11-23T08:25:28.286Z,7.20
2022-11-23T08:28:03.936Z,7.30
2022-11-23T08:30:32.348Z,7.40
2022-11-23T08:33:08.290Z,7.50
2022-11-23T08:35:39.233Z,7.60
2022-11-23T08:38:10.803Z,7.60
2022-11-23T08:40:37.928Z,7.60
2022-11-23T08:43:05.458Z,7.60
2022-11-23T08:45:32.580Z,7.60
2022-11-23T08:48:02.100Z,7.60
2022-11-23T08:50:29.617Z,7.70
2022-11-23T08:52:57.665Z,7.80
2022-11-23T08:55:25.276Z,7.80
2022-11-23T08:57:57.857Z,7.80
2022-11-23T09:00:24.960Z,7.90
2022-11-23T09:02:52.824Z,7.90
2022-11-23T09:05:20.713Z,7.90
2022-11-23T09:07:48.545Z,7.90
2022-11-23T09:10:18.738Z,7.80
2022-11-23T09:12:46.589Z,7.80
2022-11-23T09:15:19.227Z,7.80
2022-11-23T09:17:46.341Z,7.90
2022-11-23T09:20:13.316Z,7.90
2022-11-23T09:22:40.564Z,7.80
2022-11-23T09:25:08.834Z,7.80
2022-11-23T09:27:36.019Z,8.00
2022-11-23T09:30:03.272Z,8.00
2022-11-23T09:32:32.979Z,8.00
2022-11-23T09:34:59.779Z,8.00
2022-11-23T09:37:26.713Z,8.10
2022-11-23T09:39:53.496Z,8.20
2022-11-23T09:42:51.675Z,8.30
2022-11-23T09:45:34.734Z,8.30
2022-11-23T09:48:18.940Z,8.40
2022-11-23T09:50:56.436Z,8.40
2022-11-23T09:53:48.706Z,8.30
2022-11-23T09:56:33.924Z,8.30
2022-11-23T09:59:11.137Z,8.30
2022-11-23T10:01:39.484Z,8.40
2022-11-23T10:07:08.879Z,8.60
2022-11-23T10:09:38.764Z,8.60
2022-11-23T10:12:27.032Z,8.70
2022-11-23T10:15:04.072Z,8.70
2022-11-23T10:17:33.822Z,8.70
2022-11-23T10:20:15.697Z,8.60
2022-11-23T10:22:51.391Z,8.70
2022-11-23T10:25:20.621Z,8.80
2022-11-23T10:27:49.813Z,9.00
2022-11-23T10:30:19.373Z,9.20
2022-11-23T10:33:16.746Z,9.20
2022-11-23T10:35:44.664Z,9.30
2022-11-23T10:38:19.490Z,9.30
2022-11-23T10:41:09.973Z,9.50
2022-11-23T10:44:10.280Z,9.50
2022-11-23T10:46:41.353Z,9.50
2022-11-23T10:49:29.113Z,9.60
2022-11-23T10:52:00.011Z,9.60
2022-11-23T10:54:55.430Z,9.60
2022-11-23T10:57:37.068Z,9.60
2022-11-23T11:00:15.227Z,9.70
2022-11-23T11:02:48.166Z,9.70
2022-11-23T11:06:08.227Z,9.70
2022-11-23T11:08:34.673Z,9.70
2022-11-23T11:11:08.629Z,9.70
2022-11-23T11:13:45.945Z,9.70
2022-11-23T11:16:28.209Z,9.70
2022-11-23T11:18:55.182Z,9.80
2022-11-23T11:21:25.952Z,9.80
2022-11-23T11:24:05.586Z,9.90
2022-11-23T11:26:36.508Z,10.10
2022-11-23T11:29:07.596Z,10.20
2022-11-23T11:32:13.686Z,10.20
2022-11-23T11:34:49.343Z,10.20
2022-11-23T11:37:21.266Z,10.20
2022-11-23T11:39:55.602Z,10.20
2022-11-23T11:42:34.340Z,10.30
2022-11-23T11:45:07.011Z,10.40
2022-11-23T11:47:39.574Z,10.40
2022-11-23T11:50:31.609Z,10.50
2022-11-23T11:53:08.399Z,10.40
2022-11-23T11:56:03.748Z,10.50
2022-11-23T11:58:34.065Z,10.30
2022-11-23T12:01:18.185Z,10.30
2022-11-23T12:03:59.856Z,10.30
2022-11-23T12:06:43.604Z,10.30
2022-11-23T12:09:21.577Z,10.30
2022-11-23T12:11:49.574Z,10.30
2022-11-23T12:14:17.710Z,10.40
2022-11-23T12:17:37.554Z,10.30
2022-11-23T12:20:45.639Z,10.30
2022-11-23T12:23:25.024Z,10.30
2022-11-23T12:26:16.694Z,10.20
2022-11-23T12:29:08.820Z,10.10
2022-11-23T12:31:53.994Z,10.10
2022-11-23T12:34:59.911Z,10.10
2022-11-23T12:37:55.638Z,10.00
2022-11-23T12:40:51.489Z,9.90
2022-11-23T12:43:36.770Z,9.80
2022-11-23T12:46:40.518Z,9.70
2022-11-23T12:49:38.788Z,9.50
2022-11-23T12:52:34.061Z,9.50
2022-11-23T12:55:20.341Z,9.40
2022-11-23T12:58:11.906Z,9.40
2022-11-23T13:01:14.386Z,9.30
2022-11-23T13:04:09.059Z,9.20
2022-11-23T13:07:40.961Z,9.20
2022-11-23T13:10:44.537Z,9.20
2022-11-23T13:13:29.909Z,9.10
2022-11-23T13:16:22.715Z,9.00
2022-11-23T13:19:11.706Z,8.90
2022-11-23T13:21:46.564Z,8.80
2022-11-23T13:24:25.672Z,8.80
2022-11-23T13:27:31.548Z,8.70
2022-11-23T13:30:13.111Z,8.60
2022-11-23T13:32:53.332Z,8.60
2022-11-23T13:35:22.988Z,8.50
2022-11-23T13:37:55.981Z,8.60
2022-11-23T13:40:25.776Z,8.60
2022-11-23T13:43:02.528Z,8.60
2022-11-23T13:45:39.349Z,8.50
2022-11-23T13:48:13.291Z,8.60
2022-11-23T13:50:49.501Z,8.50
2022-11-23T13:53:39.558Z,8.50
2022-11-23T13:56:30.193Z,8.50
2022-11-23T13:59:19.739Z,8.40
2022-11-23T14:02:06.623Z,8.40
2022-11-23T14:04:39.556Z,8.50
2022-11-23T14:07:09.457Z,8.40
2022-11-23T14:09:44.243Z,8.40
2022-11-23T14:12:17.539Z,8.40
2022-11-23T14:15:01.049Z,8.40
2022-11-23T14:18:03.232Z,8.40
2022-11-23T14:20:40.258Z,8.50
2022-11-23T14:23:38.427Z,8.50
2022-11-23T14:26:43.513Z,8.50
2022-11-23T14:29:34.989Z,8.40
2022-11-23T14:32:53.190Z,8.50
2022-11-23T14:36:03.217Z,8.50
2022-11-23T14:38:54.458Z,8.50
2022-11-23T14:41:24.800Z,8.50
2022-11-23T14:43:52.577Z,8.60
2022-11-23T14:46:22.543Z,8.60
2022-11-23T14:48:50.274Z,8.60
2022-11-23T14:51:20.299Z,8.60
2022-11-23T14:53:50.483Z,8.60
2022-11-23T14:56:39.158Z,8.60
2022-11-23T14:59:17.148Z,8.70
2022-11-23T15:01:54.334Z,8.70
2022-11-23T15:04:41.029Z,8.70
2022-11-23T15:07:26.189Z,8.70
2022-11-23T15:10:26.158Z,8.70
2022-11-23T15:12:53.171Z,8.70
2022-11-23T15:15:24.806Z,8.70
2022-11-23T15:17:56.992Z,8.80
2022-11-23T15:20:29.811Z,8.80
2022-11-23T15:23:00.495Z,8.90
2022-11-23T15:25:28.843Z,8.90
2022-11-23T15:27:56.868Z,8.90
2022-11-23T15:30:29.990Z,8.90
2022-11-23T15:33:01.327Z,8.90
2022-11-23T15:35:34.956Z,8.80
2022-11-23T15:38:03.108Z,8.70
2022-11-23T15:40:35.292Z,8.70
2022-11-23T15:43:03.544Z,8.70
2022-11-23T15:45:37.790Z,8.70
2022-11-23T15:48:11.128Z,8.70
2022-11-23T15:50:53.396Z,8.70
2022-11-23T15:53:27.133Z,8.60
2022-11-23T15:55:58.715Z,8.60
2022-11-23T15:58:29.316Z,8.60
2022-11-23T16:01:08.003Z,8.60
2022-11-23T16:04:02.722Z,8.60
2022-11-23T16:06:41.606Z,8.60
2022-11-23T16:09:53.373Z,8.60
2022-11-23T16:12:27.974Z,8.60
2022-11-23T16:15:22.739Z,8.50
2022-11-23T16:17:49.617Z,8.50
2022-11-23T16:20:17.496Z,8.50
2022-11-23T16:22:49.861Z,8.50
2022-11-23T16:25:33.187Z,8.50
2022-11-23T16:28:04.691Z,8.50
2022-11-23T16:30:50.740Z,8.50
2022-11-23T16:33:20.007Z,8.50
2022-11-23T16:35:48.322Z,8.50
2022-11-23T16:38:15.156Z,8.60
2022-11-23T16:40:44.303Z,8.50
2022-11-23T16:43:12.420Z,8.50
2022-11-23T16:45:40.922Z,8.50
2022-11-23T16:48:26.967Z,8.50
2022-11-23T16:50:57.423Z,8.50
2022-11-23T16:53:30.212Z,8.50
2022-11-23T16:56:02.380Z,8.50
2022-11-23T16:58:35.864Z,8.50
2022-11-23T17:01:03.288Z,8.50
2022-11-23T17:03:31.086Z,8.60
2022-11-23T17:05:59.902Z,8.60
2022-11-23T17:08:29.848Z,8.60
2022-11-23T17:10:57.812Z,8.60
2022-11-23T17:13:28.647Z,8.60
2022-11-23T17:15:57.673Z,8.60
2022-11-23T17:18:25.612Z,8.60
2022-11-23T17:20:56.019Z,8.70
2022-11-23T17:23:27.094Z,8.70
2022-11-23T17:25:57.463Z,8.80
2022-11-23T17:28:26.024Z,8.90
2022-11-23T17:30:54.228Z,8.80
2022-11-23T17:33:21.153Z,8.90
2022-11-23T17:35:55.238Z,8.80
2022-11-23T17:38:26.262Z,8.90
2022-11-23T17:40:54.332Z,8.90
2022-11-23T17:43:22.227Z,8.90
2022-11-23T17:45:50.181Z,8.90
2022-11-23T17:48:17.809Z,9.00
2022-11-23T17:50:47.481Z,9.00
2022-11-23T17:53:14.472Z,8.90
2022-11-23T17:55:42.727Z,9.00
2022-11-23T17:58:12.136Z,9.00
2022-11-23T18:00:39.380Z,8.90
2022-11-23T18:03:07.517Z,9.00
2022-11-23T18:05:34.534Z,9.00
2022-11-23T18:08:01.346Z,9.00
2022-11-23T18:10:29.418Z,9.00
2022-11-23T18:12:57.883Z,9.00
2022-11-23T18:15:28.300Z,9.00
2022-11-23T18:18:01.616Z,9.10
2022-11-23T18:20:31.598Z,9.10
2022-11-23T18:22:58.535Z,9.10
2022-11-23T18:25:26.055Z,9.10
2022-11-23T18:27:54.312Z,9.20
2022-11-23T18:30:22.282Z,9.20
2022-11-23T18:32:49.315Z,9.20
2022-11-23T18:35:18.387Z,9.20
2022-11-23T18:37:46.584Z,9.20
2022-11-23T18:40:15.316Z,9.10
2022-11-23T18:42:43.189Z,9.20
2022-11-23T18:45:10.354Z,9.20
2022-11-23T18:47:37.835Z,9.20
2022-11-23T18:50:08.541Z,9.20
2022-11-23T18:52:35.602Z,9.20
2022-11-23T18:55:03.547Z,9.20
2022-11-23T18:57:30.495Z,9.20
2022-11-23T18:59:58.601Z,9.30
2022-11-23T19:02:27.065Z,9.30
2022-11-23T19:04:53.891Z,9.30
2022-11-23T19:07:26.374Z,9.30
2022-11-23T19:09:53.884Z,9.40
2022-11-23T19:12:26.562Z,9.50
2022-11-23T19:14:54.579Z,9.50
2022-11-23T19:17:23.496Z,9.50
2022-11-23T19:19:50.304Z,9.50
2022-11-23T19:22:18.461Z,9.50
2022-11-23T19:24:46.328Z,9.50
2022-11-23T19:27:13.176Z,9.50
2022-11-23T19:29:41.513Z,9.50
2022-11-23T19:32:09.547Z,9.60
2022-11-23T19:34:37.388Z,9.60
2022-11-23T19:37:06.332Z,9.60
2022-11-23T19:39:35.896Z,9.60
2022-11-23T19:42:06.550Z,9.60
2022-11-23T19:44:33.879Z,9.60
2022-11-23T19:47:01.963Z,9.60
2022-11-23T19:49:31.289Z,9.60
2022-11-23T19:51:58.786Z,9.60
2022-11-23T19:54:25.634Z,9.60
2022-11-23T19:56:54.008Z,9.50
2022-11-23T19:59:27.335Z,9.50
2022-11-23T20:01:55.285Z,9.50
2022-11-23T20:04:23.289Z,9.40
2022-11-23T20:06:51.605Z,9.40
2022-11-23T20:09:21.078Z,9.40
2022-11-23T20:11:51.910Z,9.30
2022-11-23T20:14:22.124Z,9.30
2022-11-23T20:16:50.128Z,9.30
2022-11-23T20:19:16.976Z,9.30
2022-11-23T20:21:44.819Z,9.30
2022-11-23T20:24:13.811Z,9.30
2022-11-23T20:26:42.925Z,9.30
2022-11-23T20:29:10.148Z,9.30
2022-11-23T20:31:38.506Z,9.20
2022-11-23T20:34:08.314Z,9.20
2022-11-23T20:36:37.821Z,9.30
2022-11-23T20:39:07.546Z,9.20
2022-11-23T20:41:37.253Z,9.30
2022-11-23T20:44:06.332Z,9.30
2022-11-23T20:49:23.794Z,9.30
2022-11-23T20:51:50.740Z,9.40
2022-11-23T20:54:19.631Z,9.30
2022-11-23T20:56:47.652Z,9.30
2022-11-23T20:59:16.251Z,9.30
2022-11-23T21:01:44.225Z,9.30
2022-11-23T21:04:11.184Z,9.30
2022-11-23T21:06:41.235Z,9.30
2022-11-23T21:09:09.828Z,9.30
2022-11-23T21:11:56.789Z,9.30
2022-11-23T21:14:28.184Z,9.20
2022-11-23T21:17:01.108Z,9.30
2022-11-23T21:19:33.276Z,9.30
2022-11-23T21:22:11.503Z,9.30
2022-11-23T21:24:39.378Z,9.40
2022-11-23T21:27:12.342Z,9.40
2022-11-23T21:29:40.856Z,9.40
2022-11-23T21:32:07.729Z,9.40
2022-11-23T21:34:39.401Z,9.40
2022-11-23T21:37:06.254Z,9.40
2022-11-23T21:39:34.549Z,9.40
2022-11-23T21:42:01.595Z,9.50
2022-11-23T21:44:28.538Z,9.50
2022-11-23T21:46:56.291Z,9.50
2022-11-23T21:49:28.522Z,9.50
2022-11-23T21:51:55.513Z,9.40
2022-11-23T21:54:23.539Z,9.40
2022-11-23T21:56:50.458Z,9.40
2022-11-23T21:59:17.509Z,9.40
2022-11-23T22:01:47.639Z,9.40
2022-11-23T22:04:16.217Z,9.40
2022-11-23T22:06:47.081Z,9.40
2022-11-23T22:09:14.690Z,9.40
2022-11-23T22:11:43.992Z,9.40
2022-11-23T22:14:13.313Z,9.50
2022-11-23T22:16:43.557Z,9.40
2022-11-23T22:19:12.311Z,9.40
2022-11-23T22:21:40.485Z,9.50
2022-11-23T22:24:13.160Z,9.40
2022-11-23T22:26:43.821Z,9.50
2022-11-23T22:29:11.035Z,9.50
2022-11-23T22:31:38.217Z,9.50
2022-11-23T22:34:10.137Z,9.60
2022-11-23T22:36:39.157Z,9.50
2022-11-23T22:39:07.205Z,9.60
2022-11-23T22:41:37.691Z,9.50
2022-11-23T22:44:07.004Z,9.50
2022-11-23T22:46:36.284Z,9.60
2022-11-23T22:49:04.874Z,9.50
2022-11-23T22:51:33.091Z,9.60
2022-11-23T22:54:02.235Z,9.50
2022-11-23T22:56:31.207Z,9.60
2022-11-23T22:58:58.819Z,9.50
2022-11-23T23:01:29.007Z,9.50
2022-11-23T23:03:57.957Z,9.50
2022-11-23T23:09:01.449Z,9.50
2022-11-23T23:11:31.886Z,9.50
2022-11-23T23:13:59.887Z,9.50
2022-11-23T23:16:28.786Z,9.40
2022-11-23T23:18:58.164Z,9.40
2022-11-23T23:21:28.726Z,9.40
2022-11-23T23:23:59.275Z,9.30
2022-11-23T23:26:28.773Z,9.30
2022-11-23T23:28:57.436Z,9.30
2022-11-23T23:31:25.129Z,9.30
2022-11-23T23:33:54.118Z,9.30
2022-11-23T23:36:22.944Z,9.30
2022-11-23T23:38:51.064Z,9.30
2022-11-23T23:41:19.662Z,9.30
2022-11-23T23:43:48.155Z,9.30
2022-11-23T23:46:16.717Z,9.30
2022-11-23T23:48:47.012Z,9.30
2022-11-23T23:51:15.190Z,9.30
2022-11-23T23:53:46.255Z,9.30
2022-11-23T23:56:16.111Z,9.30
2022-11-23T23:58:43.781Z,9.30
